createdAt,value
2023-09-23T00:02:21.284Z,38.66
2023-09-23T00:04:47.819Z,42.07
2023-09-23T00:07:14.543Z,42.83
2023-09-23T00:09:40.841Z,39.19
2023-09-23T00:12:07.146Z,38.30
2023-09-23T00:14:33.479Z,38.35
2023-09-23T00:16:59.794Z,38.70
2023-09-23T00:19:26.155Z,38.66
2023-09-23T00:21:52.645Z,38.83
2023-09-23T00:24:18.966Z,40.71
2023-09-23T00:26:45.342Z,42.93
2023-09-23T00:29:11.665Z,39.48
2023-09-23T00:31:38.107Z,38.54
2023-09-23T00:34:04.462Z,38.13
2023-09-23T00:36:30.813Z,38.88
2023-09-23T00:38:57.102Z,38.88
2023-09-23T00:41:23.438Z,39.07
2023-09-23T00:43:49.992Z,38.35
2023-09-23T00:46:16.390Z,40.54
2023-09-23T00:48:43.135Z,42.91
2023-09-23T00:51:09.533Z,39.47
2023-09-23T00:53:35.905Z,38.49
2023-09-23T00:56:02.356Z,38.00
2023-09-23T00:58:28.743Z,38.56
2023-09-23T01:00:55.031Z,38.85
2023-09-23T01:03:21.604Z,39.30
2023-09-23T01:05:48.044Z,38.27
2023-09-23T01:08:14.454Z,40.91
2023-09-23T01:10:41.209Z,42.73
2023-09-23T01:13:07.825Z,39.28
2023-09-23T01:15:34.257Z,38.28
2023-09-23T01:18:00.771Z,37.97
2023-09-23T01:20:27.176Z,39.09
2023-09-23T01:22:53.607Z,39.01
2023-09-23T01:25:20.109Z,39.08
2023-09-23T01:27:46.483Z,38.81
2023-09-23T01:30:12.876Z,42.01
2023-09-23T01:32:41.805Z,41.18
2023-09-23T01:35:08.446Z,39.45
2023-09-23T01:37:34.792Z,38.07
2023-09-23T01:40:01.190Z,38.13
2023-09-23T01:42:27.546Z,38.95
2023-09-23T01:44:53.842Z,39.28
2023-09-23T01:47:20.265Z,38.98
2023-09-23T01:49:46.651Z,40.24
2023-09-23T01:52:12.973Z,43.01
2023-09-23T01:54:39.312Z,39.59
2023-09-23T01:57:05.673Z,37.98
2023-09-23T01:59:31.940Z,37.67
2023-09-23T02:01:58.332Z,38.73
2023-09-23T02:04:24.950Z,39.15
2023-09-23T02:06:51.336Z,38.93
2023-09-23T02:09:17.700Z,38.41
2023-09-23T02:11:44.082Z,41.12
2023-09-23T02:14:10.447Z,42.90
2023-09-23T02:16:36.982Z,39.26
2023-09-23T02:19:03.696Z,38.85
2023-09-23T02:21:30.013Z,38.31
2023-09-23T02:23:56.318Z,38.70
2023-09-23T02:26:22.651Z,39.40
2023-09-23T02:28:49.170Z,39.08
2023-09-23T02:31:15.654Z,39.67
2023-09-23T02:33:42.053Z,40.82
2023-09-23T02:36:08.353Z,40.35
2023-09-23T02:38:34.774Z,38.62
2023-09-23T02:41:01.214Z,38.43
2023-09-23T02:43:27.527Z,38.79
2023-09-23T02:45:53.835Z,39.24
2023-09-23T02:48:20.352Z,39.66
2023-09-23T02:50:46.725Z,38.94
2023-09-23T02:53:13.078Z,41.34
2023-09-23T02:55:39.556Z,42.49
2023-09-23T02:58:05.866Z,39.42
2023-09-23T03:00:32.191Z,38.57
2023-09-23T03:02:58.728Z,38.36
2023-09-23T03:05:25.270Z,38.99
2023-09-23T03:07:51.710Z,38.95
2023-09-23T03:10:18.159Z,38.86
2023-09-23T03:12:44.441Z,38.92
2023-09-23T03:15:10.763Z,41.65
2023-09-23T03:17:37.342Z,42.60
2023-09-23T03:20:03.716Z,39.31
2023-09-23T03:22:30.070Z,38.37
2023-09-23T03:24:56.430Z,38.31
2023-09-23T03:27:22.740Z,39.03
2023-09-23T03:29:49.061Z,39.16
2023-09-23T03:32:15.631Z,39.20
2023-09-23T03:34:42.136Z,40.15
2023-09-23T03:37:11.052Z,42.10
2023-09-23T03:39:38.523Z,41.14
2023-09-23T03:42:04.904Z,39.00
2023-09-23T03:44:31.246Z,38.42
2023-09-23T03:46:57.629Z,38.73
2023-09-23T03:49:23.958Z,38.96
2023-09-23T03:51:50.263Z,39.58
2023-09-23T03:54:16.636Z,39.28
2023-09-23T03:56:42.953Z,41.38
2023-09-23T03:59:09.286Z,42.73
2023-09-23T04:01:35.680Z,39.73
2023-09-23T04:04:02.136Z,38.77
2023-09-23T04:06:28.570Z,38.40
2023-09-23T04:09:14.876Z,39.63
2023-09-23T04:11:41.260Z,39.53
2023-09-23T04:14:27.799Z,39.02
2023-09-23T04:16:54.185Z,39.79
2023-09-23T04:19:20.488Z,42.37
2023-09-23T04:21:47.012Z,40.80
2023-09-23T04:24:13.336Z,39.36
2023-09-23T04:26:39.637Z,38.74
2023-09-23T04:29:13.222Z,39.36
2023-09-23T04:31:39.619Z,39.57
2023-09-23T04:34:05.954Z,39.48
2023-09-23T04:36:32.327Z,39.10
2023-09-23T04:38:58.639Z,38.64
2023-09-23T04:41:24.957Z,41.52
2023-09-23T04:43:51.341Z,41.89
2023-09-23T04:46:17.839Z,39.68
2023-09-23T04:48:44.314Z,38.71
2023-09-23T04:51:11.120Z,38.67
2023-09-23T04:53:37.478Z,39.05
2023-09-23T04:56:03.811Z,39.42
2023-09-23T04:58:30.290Z,39.37
2023-09-23T05:00:56.601Z,38.39
2023-09-23T05:03:22.913Z,38.38
2023-09-23T05:05:49.355Z,41.65
2023-09-23T05:08:15.838Z,41.60
2023-09-23T05:10:42.163Z,39.00
2023-09-23T05:13:08.487Z,38.76
2023-09-23T05:15:34.811Z,38.66
2023-09-23T05:18:01.216Z,39.43
2023-09-23T05:20:27.673Z,39.59
2023-09-23T05:22:54.077Z,38.99
2023-09-23T05:25:20.435Z,40.97
2023-09-23T05:27:46.773Z,43.28
2023-09-23T05:30:13.486Z,39.56
2023-09-23T05:32:39.890Z,38.60
2023-09-23T05:35:06.387Z,38.45
2023-09-23T05:37:32.835Z,38.45
2023-09-23T05:39:59.249Z,39.05
2023-09-23T05:42:25.722Z,39.22
2023-09-23T05:44:52.044Z,38.98
2023-09-23T05:47:18.437Z,38.58
2023-09-23T05:49:46.608Z,40.65
2023-09-23T05:52:14.134Z,43.12
2023-09-23T05:54:40.444Z,39.73
2023-09-23T05:57:07.020Z,38.84
2023-09-23T05:59:33.343Z,38.42
2023-09-23T06:01:59.676Z,39.19
2023-09-23T06:04:26.204Z,39.45
2023-09-23T06:06:52.556Z,39.34
2023-09-23T06:09:18.895Z,39.50
2023-09-23T06:11:45.230Z,41.65
2023-09-23T06:14:11.653Z,41.19
2023-09-23T06:16:38.097Z,38.90
2023-09-23T06:19:04.417Z,38.72
2023-09-23T06:21:30.812Z,38.63
2023-09-23T06:23:57.102Z,39.15
2023-09-23T06:26:23.659Z,39.25
2023-09-23T06:28:50.068Z,38.86
2023-09-23T06:31:16.487Z,41.64
2023-09-23T06:33:43.392Z,42.86
2023-09-23T06:36:09.737Z,39.48
2023-09-23T06:38:36.075Z,38.14
2023-09-23T06:41:02.763Z,38.24
2023-09-23T06:43:29.081Z,38.76
2023-09-23T06:45:55.376Z,39.06
2023-09-23T06:48:21.768Z,39.35
2023-09-23T06:50:48.119Z,40.44
2023-09-23T06:53:14.562Z,43.95
2023-09-23T06:55:40.901Z,40.56
2023-09-23T06:58:07.208Z,38.86
2023-09-23T07:00:33.518Z,38.07
2023-09-23T07:02:59.920Z,38.56
2023-09-23T07:05:28.762Z,39.04
2023-09-23T07:07:55.148Z,39.11
2023-09-23T07:10:21.483Z,38.77
2023-09-23T07:12:47.865Z,40.95
2023-09-23T07:15:14.155Z,42.76
2023-09-23T07:17:40.641Z,39.61
2023-09-23T07:20:07.051Z,38.50
2023-09-23T07:22:33.366Z,38.35
2023-09-23T07:24:59.809Z,38.96
2023-09-23T07:27:26.180Z,39.40
2023-09-23T07:29:52.467Z,38.98
2023-09-23T07:32:18.940Z,38.74
2023-09-23T07:34:45.285Z,39.50
2023-09-23T07:37:11.563Z,42.42
2023-09-23T07:39:37.883Z,39.84
2023-09-23T07:42:05.209Z,38.25
2023-09-23T07:44:31.538Z,37.20
2023-09-23T07:46:57.978Z,37.20
2023-09-23T07:49:24.317Z,38.21
2023-09-23T07:51:50.637Z,38.82
2023-09-23T07:54:17.148Z,38.33
2023-09-23T07:56:43.565Z,38.09
2023-09-23T07:59:09.949Z,39.47
2023-09-23T08:01:36.275Z,41.22
2023-09-23T08:04:02.731Z,39.65
2023-09-23T08:06:29.031Z,37.45
2023-09-23T08:08:55.373Z,36.67
2023-09-23T08:11:21.735Z,37.07
2023-09-23T08:13:48.330Z,38.09
2023-09-23T08:16:14.886Z,38.68
2023-09-23T08:18:41.284Z,38.41
2023-09-23T08:21:07.587Z,38.07
2023-09-23T08:23:33.962Z,39.20
2023-09-23T08:26:00.329Z,41.70
2023-09-23T08:28:26.736Z,40.23
2023-09-23T08:30:53.119Z,37.60
2023-09-23T08:33:19.517Z,36.14
2023-09-23T08:35:45.907Z,36.20
2023-09-23T08:38:12.268Z,37.02
2023-09-23T08:40:38.570Z,37.99
2023-09-23T08:43:04.898Z,38.06
2023-09-23T08:45:31.360Z,37.30
2023-09-23T08:47:57.782Z,38.86
2023-09-23T08:50:24.185Z,40.33
2023-09-23T08:52:50.595Z,39.61
2023-09-23T08:55:16.907Z,37.20
2023-09-23T08:57:43.233Z,36.03
2023-09-23T09:00:09.694Z,35.94
2023-09-23T09:02:36.093Z,36.88
2023-09-23T09:05:02.713Z,37.70
2023-09-23T09:07:29.139Z,37.50
2023-09-23T09:09:55.624Z,37.28
2023-09-23T09:12:22.462Z,38.35
2023-09-23T09:14:48.807Z,40.41
2023-09-23T09:17:15.173Z,39.22
2023-09-23T09:19:41.468Z,37.62
2023-09-23T09:22:07.778Z,36.27
2023-09-23T09:24:34.124Z,36.09
2023-09-23T09:27:00.448Z,36.72
2023-09-23T09:29:26.799Z,37.51
2023-09-23T09:31:53.282Z,37.35
2023-09-23T09:34:19.625Z,37.43
2023-09-23T09:36:45.965Z,38.20
2023-09-23T09:39:12.294Z,40.23
2023-09-23T09:41:38.582Z,39.54
2023-09-23T09:44:05.030Z,37.49
2023-09-23T09:46:31.386Z,36.77
2023-09-23T09:48:57.709Z,36.60
2023-09-23T09:51:24.047Z,37.07
2023-09-23T09:53:50.424Z,37.57
2023-09-23T09:56:17.903Z,37.30
2023-09-23T09:58:45.646Z,37.58
2023-09-23T10:01:12.146Z,38.24
2023-09-23T10:03:38.648Z,42.61
2023-09-23T10:06:05.071Z,40.89
2023-09-23T10:08:31.388Z,38.36
2023-09-23T10:10:57.667Z,36.31
2023-09-23T10:13:24.017Z,34.70
2023-09-23T10:15:50.348Z,35.50
2023-09-23T10:18:16.764Z,36.74
2023-09-23T10:20:43.361Z,37.18
2023-09-23T10:23:09.769Z,37.33
2023-09-23T10:25:36.075Z,37.19
2023-09-23T10:28:02.428Z,41.93
2023-09-23T10:30:28.759Z,40.68
2023-09-23T10:32:55.049Z,37.81
2023-09-23T10:35:21.630Z,35.97
2023-09-23T10:37:47.992Z,35.33
2023-09-23T10:40:14.359Z,35.75
2023-09-23T10:42:40.999Z,36.40
2023-09-23T10:45:07.380Z,37.04
2023-09-23T10:47:33.744Z,36.93
2023-09-23T10:50:00.427Z,36.24
2023-09-23T10:52:26.791Z,38.68
2023-09-23T10:54:53.085Z,41.22
2023-09-23T10:57:19.972Z,38.25
2023-09-23T10:59:46.333Z,36.40
2023-09-23T11:02:12.759Z,35.41
2023-09-23T11:04:39.260Z,35.22
2023-09-23T11:07:05.824Z,36.24
2023-09-23T11:09:32.141Z,36.70
2023-09-23T11:11:58.645Z,36.83
2023-09-23T11:14:25.003Z,36.45
2023-09-23T11:16:51.271Z,37.87
2023-09-23T11:19:17.605Z,41.14
2023-09-23T11:21:43.946Z,39.06
2023-09-23T11:24:10.541Z,36.92
2023-09-23T11:26:37.118Z,35.43
2023-09-23T11:29:03.519Z,35.27
2023-09-23T11:31:29.920Z,36.17
2023-09-23T11:33:56.298Z,36.68
2023-09-23T11:36:22.612Z,36.96
2023-09-23T11:38:49.298Z,36.52
2023-09-23T11:41:15.973Z,37.40
2023-09-23T11:43:42.328Z,42.24
2023-09-23T11:46:08.672Z,39.08
2023-09-23T11:48:35.035Z,36.84
2023-09-23T11:51:01.408Z,35.92
2023-09-23T11:53:27.743Z,35.71
2023-09-23T11:55:54.102Z,35.99
2023-09-23T11:58:20.447Z,36.78
2023-09-23T12:00:46.751Z,37.08
2023-09-23T12:03:13.383Z,37.09
2023-09-23T12:05:39.827Z,36.58
2023-09-23T12:08:06.205Z,41.10
2023-09-23T12:10:33.218Z,40.68
2023-09-23T12:12:59.521Z,37.28
2023-09-23T12:15:25.837Z,36.09
2023-09-23T12:17:52.255Z,35.16
2023-09-23T12:20:18.682Z,35.36
2023-09-23T12:22:45.001Z,36.40
2023-09-23T12:25:11.337Z,36.72
2023-09-23T12:27:37.706Z,36.89
2023-09-23T12:30:04.012Z,36.53
2023-09-23T12:32:30.454Z,39.70
2023-09-23T12:34:56.891Z,40.66
2023-09-23T12:37:23.241Z,38.07
2023-09-23T12:39:49.546Z,36.43
2023-09-23T12:42:16.152Z,35.08
2023-09-23T12:44:42.697Z,35.41
2023-09-23T12:47:09.305Z,36.27
2023-09-23T12:49:35.660Z,36.74
2023-09-23T12:52:01.986Z,36.64
2023-09-23T12:54:28.354Z,36.51
2023-09-23T12:56:54.667Z,39.09
2023-09-23T12:59:21.074Z,41.08
2023-09-23T13:01:47.499Z,38.58
2023-09-23T13:04:13.850Z,36.20
2023-09-23T13:06:40.176Z,35.14
2023-09-23T13:09:06.667Z,35.33
2023-09-23T13:11:33.050Z,36.50
2023-09-23T13:13:59.471Z,37.30
2023-09-23T13:16:25.915Z,36.90
2023-09-23T13:18:52.282Z,37.01
2023-09-23T13:21:18.578Z,38.22
2023-09-23T13:23:44.939Z,40.84
2023-09-23T13:26:11.350Z,38.61
2023-09-23T13:28:37.751Z,36.44
2023-09-23T13:31:04.249Z,35.77
2023-09-23T13:33:30.694Z,35.43
2023-09-23T13:35:57.044Z,35.76
2023-09-23T13:38:23.433Z,36.63
2023-09-23T13:40:49.766Z,37.01
2023-09-23T13:43:16.083Z,36.63
2023-09-23T13:45:42.708Z,37.11
2023-09-23T13:48:09.128Z,39.67
2023-09-23T13:50:35.534Z,40.45
2023-09-23T13:53:02.010Z,37.94
2023-09-23T13:55:28.432Z,36.53
2023-09-23T13:57:54.736Z,35.30
2023-09-23T14:00:21.079Z,35.36
2023-09-23T14:02:48.452Z,36.86
2023-09-23T14:05:14.904Z,36.93
2023-09-23T14:07:41.319Z,37.47
2023-09-23T14:10:20.533Z,36.51
2023-09-23T14:12:48.493Z,38.18
2023-09-23T14:15:14.850Z,40.73
2023-09-23T14:17:41.334Z,38.45
2023-09-23T14:20:07.837Z,35.92
2023-09-23T14:22:34.161Z,35.02
2023-09-23T14:25:00.474Z,34.56
2023-09-23T14:27:26.811Z,35.78
2023-09-23T14:29:53.160Z,36.54
2023-09-23T14:32:19.539Z,36.62
2023-09-23T14:34:45.839Z,36.54
2023-09-23T14:37:12.138Z,39.71
2023-09-23T14:39:38.437Z,40.98
2023-09-23T14:42:04.804Z,38.31
2023-09-23T14:44:31.150Z,36.81
2023-09-23T14:46:57.510Z,35.17
2023-09-23T14:49:23.924Z,34.94
2023-09-23T14:51:50.291Z,35.92
2023-09-23T14:54:16.572Z,36.45
2023-09-23T14:56:42.958Z,36.22
2023-09-23T14:59:09.341Z,36.56
2023-09-23T15:01:35.703Z,37.21
2023-09-23T15:04:02.238Z,40.67
2023-09-23T15:06:28.659Z,39.06
2023-09-23T15:09:00.493Z,36.51
2023-09-23T15:11:27.208Z,34.65
2023-09-23T15:13:53.574Z,34.91
2023-09-23T15:16:19.910Z,35.39
2023-09-23T15:18:46.624Z,36.12
2023-09-23T15:21:13.291Z,36.19
2023-09-23T15:23:41.531Z,36.30
2023-09-23T15:26:07.881Z,37.06
2023-09-23T15:28:34.196Z,41.12
2023-09-23T15:31:00.471Z,39.03
2023-09-23T15:33:26.844Z,37.09
2023-09-23T15:35:53.228Z,35.67
2023-09-23T15:38:19.561Z,35.12
2023-09-23T15:40:45.961Z,36.06
2023-09-23T15:43:12.287Z,36.36
2023-09-23T15:45:38.640Z,36.59
2023-09-23T15:48:05.050Z,36.15
2023-09-23T15:50:31.502Z,37.73
2023-09-23T15:52:57.882Z,39.19
2023-09-23T15:55:24.418Z,38.85
2023-09-23T15:57:50.735Z,36.34
2023-09-23T16:00:17.046Z,35.35
2023-09-23T16:02:43.823Z,35.03
2023-09-23T16:05:10.340Z,35.17
2023-09-23T16:07:36.731Z,36.14
2023-09-23T16:10:03.233Z,36.29
2023-09-23T16:12:29.616Z,36.44
2023-09-23T16:14:55.932Z,36.83
2023-09-23T16:17:22.357Z,40.26
2023-09-23T16:19:48.912Z,39.09
2023-09-23T16:22:15.396Z,36.37
2023-09-23T16:24:41.801Z,35.32
2023-09-23T16:27:08.137Z,35.25
2023-09-23T16:29:34.483Z,36.15
2023-09-23T16:32:00.897Z,36.77
2023-09-23T16:34:27.293Z,36.79
2023-09-23T16:36:53.593Z,36.26
2023-09-23T16:39:20.055Z,37.03
2023-09-23T16:41:46.597Z,38.83
2023-09-23T16:44:12.974Z,39.28
2023-09-23T16:46:39.564Z,36.83
2023-09-23T16:49:05.889Z,36.50
2023-09-23T16:51:32.229Z,36.77
2023-09-23T16:53:58.662Z,37.05
2023-09-23T16:56:25.083Z,37.86
2023-09-23T16:58:51.418Z,37.60
2023-09-23T17:01:17.925Z,38.97
2023-09-23T17:03:44.395Z,41.27
2023-09-23T17:06:10.874Z,39.45
2023-09-23T17:08:37.293Z,37.85
2023-09-23T17:11:03.739Z,36.90
2023-09-23T17:13:30.147Z,37.40
2023-09-23T17:15:56.634Z,38.19
2023-09-23T17:18:23.073Z,38.76
2023-09-23T17:20:49.469Z,38.40
2023-09-23T17:23:15.833Z,37.99
2023-09-23T17:25:42.252Z,39.27
2023-09-23T17:28:08.626Z,40.95
2023-09-23T17:30:35.478Z,39.50
2023-09-23T17:33:02.340Z,38.35
2023-09-23T17:35:28.774Z,37.56
2023-09-23T17:37:55.370Z,37.51
2023-09-23T17:40:21.825Z,38.28
2023-09-23T17:42:48.171Z,38.92
2023-09-23T17:45:14.636Z,38.36
2023-09-23T17:47:41.041Z,39.07
2023-09-23T17:50:07.422Z,41.52
2023-09-23T17:52:33.834Z,39.67
2023-09-23T17:55:00.281Z,38.01
2023-09-23T17:57:26.748Z,36.68
2023-09-23T17:59:53.198Z,37.19
2023-09-23T18:02:19.599Z,37.73
2023-09-23T18:04:45.940Z,38.60
2023-09-23T18:07:12.342Z,38.10
2023-09-23T18:09:39.804Z,37.97
2023-09-23T18:12:06.258Z,39.53
2023-09-23T18:14:32.606Z,41.17
2023-09-23T18:16:58.919Z,39.58
2023-09-23T18:19:25.222Z,37.89
2023-09-23T18:21:51.577Z,36.28
2023-09-23T18:24:18.199Z,36.02
2023-09-23T18:26:44.662Z,36.56
2023-09-23T18:29:11.126Z,37.75
2023-09-23T18:31:37.566Z,37.30
2023-09-23T18:34:03.918Z,36.91
2023-09-23T18:36:30.289Z,38.59
2023-09-23T18:38:56.662Z,40.84
2023-09-23T18:41:22.983Z,39.18
2023-09-23T18:43:49.488Z,37.45
2023-09-23T18:46:15.947Z,36.38
2023-09-23T18:48:42.484Z,36.85
2023-09-23T18:51:10.227Z,37.80
2023-09-23T18:53:38.209Z,37.86
2023-09-23T18:56:04.712Z,37.59
2023-09-23T18:58:51.051Z,37.46
2023-09-23T19:01:37.425Z,38.99
2023-09-23T19:04:23.856Z,41.36
2023-09-23T19:06:50.228Z,38.44
2023-09-23T19:09:16.565Z,37.43
2023-09-23T19:11:42.944Z,37.29
2023-09-23T19:14:09.338Z,37.67
2023-09-23T19:16:35.713Z,38.48
2023-09-23T19:19:02.053Z,38.21
2023-09-23T19:21:28.369Z,37.98
2023-09-23T19:23:54.707Z,39.11
2023-09-23T19:26:21.090Z,41.12
2023-09-23T19:28:47.487Z,39.23
2023-09-23T19:31:14.537Z,38.14
2023-09-23T19:33:41.591Z,37.60
2023-09-23T19:36:08.015Z,38.31
2023-09-23T19:38:34.320Z,39.17
2023-09-23T19:41:00.900Z,38.74
2023-09-23T19:43:27.214Z,38.55
2023-09-23T19:45:53.803Z,37.89
2023-09-23T19:48:20.235Z,39.29
2023-09-23T19:50:46.611Z,41.99
2023-09-23T19:53:12.981Z,40.06
2023-09-23T19:55:39.390Z,38.46
2023-09-23T19:58:05.736Z,37.71
2023-09-23T20:00:32.053Z,37.88
2023-09-23T20:02:58.619Z,38.85
2023-09-23T20:05:25.087Z,39.01
2023-09-23T20:07:51.486Z,38.09
2023-09-23T20:10:17.803Z,39.31
2023-09-23T20:12:44.084Z,41.58
2023-09-23T20:15:10.472Z,39.65
2023-09-23T20:17:36.952Z,38.24
2023-09-23T20:20:03.327Z,37.85
2023-09-23T20:22:29.659Z,38.14
2023-09-23T20:24:56.147Z,38.85
2023-09-23T20:27:22.478Z,38.54
2023-09-23T20:30:03.652Z,38.06
2023-09-23T20:32:32.494Z,41.60
2023-09-23T20:34:58.912Z,40.99
2023-09-23T20:37:25.226Z,38.74
2023-09-23T20:39:53.257Z,37.51
2023-09-23T20:42:20.121Z,37.35
2023-09-23T20:44:46.409Z,38.14
2023-09-23T20:47:12.848Z,38.43
2023-09-23T20:49:39.171Z,38.32
2023-09-23T20:52:05.457Z,39.49
2023-09-23T20:54:31.792Z,41.74
2023-09-23T20:56:58.119Z,39.73
2023-09-23T20:59:24.416Z,37.52
2023-09-23T21:01:51.007Z,37.11
2023-09-23T21:04:17.426Z,36.98
2023-09-23T21:06:43.914Z,37.66
2023-09-23T21:09:10.270Z,38.27
2023-09-23T21:11:36.692Z,37.85
2023-09-23T21:14:03.081Z,37.25
2023-09-23T21:16:29.428Z,39.28
2023-09-23T21:18:55.822Z,41.07
2023-09-23T21:21:22.123Z,38.82
2023-09-23T21:23:48.849Z,37.45
2023-09-23T21:26:15.397Z,36.79
2023-09-23T21:28:41.758Z,37.72
2023-09-23T21:31:08.101Z,38.27
2023-09-23T21:33:34.444Z,38.58
2023-09-23T21:36:00.890Z,37.87
2023-09-23T21:38:27.486Z,39.77
2023-09-23T21:40:53.807Z,40.92
2023-09-23T21:43:20.231Z,38.30
2023-09-23T21:45:47.404Z,37.56
2023-09-23T21:48:13.838Z,37.41
2023-09-23T21:50:40.167Z,38.27
2023-09-23T21:53:11.527Z,38.61
2023-09-23T21:55:37.853Z,38.41
2023-09-23T21:58:04.147Z,39.04
2023-09-23T22:00:30.599Z,41.88
2023-09-23T22:02:57.148Z,39.68
2023-09-23T22:05:23.709Z,37.84
2023-09-23T22:07:50.100Z,37.62
2023-09-23T22:10:16.390Z,37.95
2023-09-23T22:12:42.688Z,38.75
2023-09-23T22:15:09.105Z,38.10
2023-09-23T22:17:35.423Z,37.96
2023-09-23T22:20:01.751Z,39.26
2023-09-23T22:22:28.151Z,40.20
2023-09-23T22:24:54.433Z,38.99
2023-09-23T22:27:20.733Z,38.14
2023-09-23T22:29:47.124Z,37.45
2023-09-23T22:32:13.450Z,37.83
2023-09-23T22:34:39.780Z,38.81
2023-09-23T22:37:06.116Z,38.61
2023-09-23T22:39:32.426Z,37.97
2023-09-23T22:41:58.709Z,40.69
2023-09-23T22:44:25.140Z,42.04
2023-09-23T22:46:51.594Z,39.05
2023-09-23T22:49:18.009Z,37.92
2023-09-23T22:51:44.447Z,37.54
2023-09-23T22:54:10.745Z,38.64
2023-09-23T22:56:37.106Z,39.05
2023-09-23T22:59:03.502Z,39.18
2023-09-23T23:01:29.883Z,38.25
2023-09-23T23:03:56.243Z,39.70
2023-09-23T23:06:22.710Z,42.62
2023-09-23T23:08:49.059Z,39.20
2023-09-23T23:11:15.348Z,37.57
2023-09-23T23:13:41.704Z,37.46
2023-09-23T23:16:08.089Z,38.31
2023-09-23T23:18:34.548Z,38.62
2023-09-23T23:21:00.984Z,38.85
2023-09-23T23:23:27.373Z,38.25
2023-09-23T23:25:53.680Z,40.88
2023-09-23T23:28:20.064Z,41.51
2023-09-23T23:30:46.366Z,39.34
2023-09-23T23:33:12.743Z,37.80
2023-09-23T23:35:41.677Z,37.41
2023-09-23T23:38:08.000Z,38.34
2023-09-23T23:40:34.304Z,38.69
2023-09-23T23:43:00.682Z,38.87
2023-09-23T23:45:27.007Z,37.93
2023-09-23T23:47:53.345Z,40.60
2023-09-23T23:50:20.044Z,42.05
2023-09-23T23:52:46.375Z,38.57
2023-09-23T23:55:12.688Z,37.47
2023-09-23T23:57:40.415Z,37.35
